sensor_id;sensor_type;location;lat;lon;timestamp;P1;durP1;ratioP1;P2;durP2;ratioP2
6133;SDS011;3098;42.678;23.364;2022-12-20T00:01:41;2.50;;;1.43;;
6133;SDS011;3098;42.678;23.364;2022-12-20T00:04:11;2.73;;;1.90;;
6133;SDS011;3098;42.678;23.364;2022-12-20T00:06:50;2.33;;;1.70;;
6133;SDS011;3098;42.678;23.364;2022-12-20T00:09:19;1.23;;;1.13;;
6133;SDS011;3098;42.678;23.364;2022-12-20T00:11:50;1.37;;;0.60;;
6133;SDS011;3098;42.678;23.364;2022-12-20T00:14:37;1.13;;;0.50;;
6133;SDS011;3098;42.678;23.364;2022-12-20T00:17:04;0.43;;;0.43;;
6133;SDS011;3098;42.678;23.364;2022-12-20T00:19:32;2.70;;;1.83;;
6133;SDS011;3098;42.678;23.364;2022-12-20T00:21:59;0.90;;;0.90;;
6133;SDS011;3098;42.678;23.364;2022-12-20T00:24:26;0.83;;;0.83;;
6133;SDS011;3098;42.678;23.364;2022-12-20T00:26:54;2.13;;;0.93;;
6133;SDS011;3098;42.678;23.364;2022-12-20T00:29:21;0.97;;;0.97;;
6133;SDS011;3098;42.678;23.364;2022-12-20T00:31:52;2.57;;;1.70;;
6133;SDS011;3098;42.678;23.364;2022-12-20T00:34:19;4.40;;;1.80;;
6133;SDS011;3098;42.678;23.364;2022-12-20T00:36:47;1.83;;;1.40;;
6133;SDS011;3098;42.678;23.364;2022-12-20T00:39:15;0.43;;;0.43;;
6133;SDS011;3098;42.678;23.364;2022-12-20T00:41:43;6.17;;;0.73;;
6133;SDS011;3098;42.678;23.364;2022-12-20T00:44:10;1.40;;;1.30;;
6133;SDS011;3098;42.678;23.364;2022-12-20T00:46:37;0.60;;;0.60;;
6133;SDS011;3098;42.678;23.364;2022-12-20T00:49:06;7.87;;;1.47;;
6133;SDS011;3098;42.678;23.364;2022-12-20T00:51:33;0.40;;;0.40;;
6133;SDS011;3098;42.678;23.364;2022-12-20T00:54:00;1.33;;;1.23;;
6133;SDS011;3098;42.678;23.364;2022-12-20T00:56:28;1.87;;;1.27;;
6133;SDS011;3098;42.678;23.364;2022-12-20T00:58:57;2.03;;;0.90;;
6133;SDS011;3098;42.678;23.364;2022-12-20T01:01:28;1.73;;;0.53;;
6133;SDS011;3098;42.678;23.364;2022-12-20T01:03:56;2.43;;;1.37;;
6133;SDS011;3098;42.678;23.364;2022-12-20T01:06:24;1.73;;;1.63;;
6133;SDS011;3098;42.678;23.364;2022-12-20T01:08:52;1.43;;;0.97;;
6133;SDS011;3098;42.678;23.364;2022-12-20T01:11:21;1.30;;;1.20;;
6133;SDS011;3098;42.678;23.364;2022-12-20T01:13:54;2.10;;;1.90;;
6133;SDS011;3098;42.678;23.364;2022-12-20T01:16:24;1.23;;;0.80;;
6133;SDS011;3098;42.678;23.364;2022-12-20T01:18:53;1.70;;;1.30;;
6133;SDS011;3098;42.678;23.364;2022-12-20T01:21:21;1.17;;;1.07;;
6133;SDS011;3098;42.678;23.364;2022-12-20T01:23:51;1.07;;;1.07;;
6133;SDS011;3098;42.678;23.364;2022-12-20T01:26:19;4.37;;;2.00;;
6133;SDS011;3098;42.678;23.364;2022-12-20T01:28:50;1.83;;;1.00;;
6133;SDS011;3098;42.678;23.364;2022-12-20T01:31:19;1.67;;;1.20;;
6133;SDS011;3098;42.678;23.364;2022-12-20T01:33:48;1.10;;;0.80;;
6133;SDS011;3098;42.678;23.364;2022-12-20T01:36:17;1.27;;;0.97;;
6133;SDS011;3098;42.678;23.364;2022-12-20T01:38:46;0.80;;;0.80;;
6133;SDS011;3098;42.678;23.364;2022-12-20T01:41:15;1.50;;;1.40;;
6133;SDS011;3098;42.678;23.364;2022-12-20T01:43:44;0.57;;;0.57;;
6133;SDS011;3098;42.678;23.364;2022-12-20T01:46:14;2.27;;;1.23;;
6133;SDS011;3098;42.678;23.364;2022-12-20T01:48:42;1.00;;;0.70;;
6133;SDS011;3098;42.678;23.364;2022-12-20T01:51:16;0.80;;;0.80;;
6133;SDS011;3098;42.678;23.364;2022-12-20T01:53:46;2.07;;;1.87;;
6133;SDS011;3098;42.678;23.364;2022-12-20T01:56:19;0.87;;;0.60;;
6133;SDS011;3098;42.678;23.364;2022-12-20T01:58:47;0.33;;;0.33;;
6133;SDS011;3098;42.678;23.364;2022-12-20T02:01:19;6.87;;;1.87;;
6133;SDS011;3098;42.678;23.364;2022-12-20T02:03:47;5.40;;;0.80;;
6133;SDS011;3098;42.678;23.364;2022-12-20T02:06:17;0.70;;;0.70;;
6133;SDS011;3098;42.678;23.364;2022-12-20T02:08:46;0.77;;;0.73;;
6133;SDS011;3098;42.678;23.364;2022-12-20T02:11:34;0.60;;;0.60;;
6133;SDS011;3098;42.678;23.364;2022-12-20T02:14:18;0.20;;;0.20;;
6133;SDS011;3098;42.678;23.364;2022-12-20T02:17:00;0.40;;;0.40;;
6133;SDS011;3098;42.678;23.364;2022-12-20T02:22:28;8.00;;;1.50;;
6133;SDS011;3098;42.678;23.364;2022-12-20T02:25:13;0.63;;;0.63;;
6133;SDS011;3098;42.678;23.364;2022-12-20T02:28:04;1.47;;;0.83;;
6133;SDS011;3098;42.678;23.364;2022-12-20T02:30:44;0.97;;;0.80;;
6133;SDS011;3098;42.678;23.364;2022-12-20T02:33:14;1.00;;;0.87;;
6133;SDS011;3098;42.678;23.364;2022-12-20T02:35:42;1.27;;;0.60;;
6133;SDS011;3098;42.678;23.364;2022-12-20T02:38:23;1.00;;;1.00;;
6133;SDS011;3098;42.678;23.364;2022-12-20T02:40:55;6.80;;;1.53;;
6133;SDS011;3098;42.678;23.364;2022-12-20T02:43:26;2.17;;;0.60;;
6133;SDS011;3098;42.678;23.364;2022-12-20T02:46:14;0.80;;;0.80;;
6133;SDS011;3098;42.678;23.364;2022-12-20T02:48:42;17.83;;;1.40;;
6133;SDS011;3098;42.678;23.364;2022-12-20T02:51:10;0.97;;;0.90;;
6133;SDS011;3098;42.678;23.364;2022-12-20T02:53:38;1.23;;;0.93;;
6133;SDS011;3098;42.678;23.364;2022-12-20T02:56:07;2.10;;;1.27;;
6133;SDS011;3098;42.678;23.364;2022-12-20T02:58:41;2.33;;;1.80;;
6133;SDS011;3098;42.678;23.364;2022-12-20T03:01:15;2.30;;;0.77;;
6133;SDS011;3098;42.678;23.364;2022-12-20T03:03:46;0.23;;;0.23;;
6133;SDS011;3098;42.678;23.364;2022-12-20T03:06:15;1.67;;;1.57;;
6133;SDS011;3098;42.678;23.364;2022-12-20T03:08:45;1.20;;;1.10;;
6133;SDS011;3098;42.678;23.364;2022-12-20T03:11:12;8.97;;;1.77;;
6133;SDS011;3098;42.678;23.364;2022-12-20T03:13:42;8.27;;;2.03;;
6133;SDS011;3098;42.678;23.364;2022-12-20T03:16:11;0.97;;;0.97;;
6133;SDS011;3098;42.678;23.364;2022-12-20T03:18:40;4.33;;;2.43;;
6133;SDS011;3098;42.678;23.364;2022-12-20T03:21:10;0.77;;;0.77;;
6133;SDS011;3098;42.678;23.364;2022-12-20T03:23:37;0.47;;;0.47;;
6133;SDS011;3098;42.678;23.364;2022-12-20T03:26:05;5.27;;;1.70;;
6133;SDS011;3098;42.678;23.364;2022-12-20T03:28:34;0.90;;;0.90;;
6133;SDS011;3098;42.678;23.364;2022-12-20T03:31:01;3.40;;;1.80;;
6133;SDS011;3098;42.678;23.364;2022-12-20T03:33:29;4.30;;;2.10;;
6133;SDS011;3098;42.678;23.364;2022-12-20T03:35:58;2.03;;;1.17;;
6133;SDS011;3098;42.678;23.364;2022-12-20T03:38:25;4.60;;;2.00;;
6133;SDS011;3098;42.678;23.364;2022-12-20T03:40:53;1.17;;;0.60;;
6133;SDS011;3098;42.678;23.364;2022-12-20T03:43:21;1.67;;;1.50;;
6133;SDS011;3098;42.678;23.364;2022-12-20T03:45:48;3.03;;;1.87;;
6133;SDS011;3098;42.678;23.364;2022-12-20T03:48:15;3.17;;;2.10;;
6133;SDS011;3098;42.678;23.364;2022-12-20T03:50:43;4.87;;;2.77;;
6133;SDS011;3098;42.678;23.364;2022-12-20T03:53:11;5.57;;;2.30;;
6133;SDS011;3098;42.678;23.364;2022-12-20T03:55:39;3.53;;;2.07;;
6133;SDS011;3098;42.678;23.364;2022-12-20T03:58:07;1.23;;;1.10;;
6133;SDS011;3098;42.678;23.364;2022-12-20T04:00:34;13.60;;;2.10;;
6133;SDS011;3098;42.678;23.364;2022-12-20T04:03:02;2.00;;;1.73;;
6133;SDS011;3098;42.678;23.364;2022-12-20T04:05:31;1.80;;;1.63;;
6133;SDS011;3098;42.678;23.364;2022-12-20T04:07:58;2.87;;;1.93;;
6133;SDS011;3098;42.678;23.364;2022-12-20T04:10:27;2.80;;;2.03;;
6133;SDS011;3098;42.678;23.364;2022-12-20T04:12:55;1.07;;;1.00;;
6133;SDS011;3098;42.678;23.364;2022-12-20T04:15:22;2.83;;;1.40;;
6133;SDS011;3098;42.678;23.364;2022-12-20T04:17:49;1.50;;;1.37;;
6133;SDS011;3098;42.678;23.364;2022-12-20T04:20:17;0.53;;;0.53;;
6133;SDS011;3098;42.678;23.364;2022-12-20T04:22:49;0.47;;;0.47;;
6133;SDS011;3098;42.678;23.364;2022-12-20T04:25:19;1.07;;;1.03;;
6133;SDS011;3098;42.678;23.364;2022-12-20T04:27:49;2.13;;;1.40;;
6133;SDS011;3098;42.678;23.364;2022-12-20T04:30:16;2.23;;;1.70;;
6133;SDS011;3098;42.678;23.364;2022-12-20T04:32:43;2.97;;;1.27;;
6133;SDS011;3098;42.678;23.364;2022-12-20T04:35:10;0.90;;;0.90;;
6133;SDS011;3098;42.678;23.364;2022-12-20T04:37:41;1.73;;;1.63;;
6133;SDS011;3098;42.678;23.364;2022-12-20T04:40:08;2.93;;;2.00;;
6133;SDS011;3098;42.678;23.364;2022-12-20T04:42:36;2.00;;;1.37;;
6133;SDS011;3098;42.678;23.364;2022-12-20T04:45:05;1.60;;;1.03;;
6133;SDS011;3098;42.678;23.364;2022-12-20T04:47:33;1.30;;;0.87;;
6133;SDS011;3098;42.678;23.364;2022-12-20T04:50:01;0.77;;;0.77;;
6133;SDS011;3098;42.678;23.364;2022-12-20T04:52:32;1.80;;;1.70;;
6133;SDS011;3098;42.678;23.364;2022-12-20T04:55:16;1.77;;;1.30;;
6133;SDS011;3098;42.678;23.364;2022-12-20T04:57:45;8.03;;;2.07;;
6133;SDS011;3098;42.678;23.364;2022-12-20T05:00:15;0.20;;;0.20;;
6133;SDS011;3098;42.678;23.364;2022-12-20T05:02:43;1.80;;;1.23;;
6133;SDS011;3098;42.678;23.364;2022-12-20T05:05:15;1.00;;;0.83;;
6133;SDS011;3098;42.678;23.364;2022-12-20T05:07:43;3.93;;;1.73;;
6133;SDS011;3098;42.678;23.364;2022-12-20T05:10:12;1.10;;;0.97;;
6133;SDS011;3098;42.678;23.364;2022-12-20T05:12:41;2.07;;;1.33;;
6133;SDS011;3098;42.678;23.364;2022-12-20T05:15:09;3.10;;;1.73;;
6133;SDS011;3098;42.678;23.364;2022-12-20T05:17:38;7.10;;;1.73;;
6133;SDS011;3098;42.678;23.364;2022-12-20T05:20:06;1.63;;;1.07;;
6133;SDS011;3098;42.678;23.364;2022-12-20T05:22:34;1.30;;;1.23;;
6133;SDS011;3098;42.678;23.364;2022-12-20T05:25:18;0.97;;;0.97;;
6133;SDS011;3098;42.678;23.364;2022-12-20T05:28:03;0.57;;;0.43;;
6133;SDS011;3098;42.678;23.364;2022-12-20T05:30:31;2.70;;;1.67;;
6133;SDS011;3098;42.678;23.364;2022-12-20T05:33:01;0.87;;;0.87;;
6133;SDS011;3098;42.678;23.364;2022-12-20T05:35:28;1.70;;;1.60;;
6133;SDS011;3098;42.678;23.364;2022-12-20T05:37:56;1.43;;;1.33;;
6133;SDS011;3098;42.678;23.364;2022-12-20T05:40:23;1.20;;;1.13;;
6133;SDS011;3098;42.678;23.364;2022-12-20T05:42:51;1.27;;;1.13;;
6133;SDS011;3098;42.678;23.364;2022-12-20T05:45:19;1.90;;;1.40;;
6133;SDS011;3098;42.678;23.364;2022-12-20T05:47:47;0.83;;;0.77;;
6133;SDS011;3098;42.678;23.364;2022-12-20T05:50:17;3.50;;;1.37;;
6133;SDS011;3098;42.678;23.364;2022-12-20T05:52:44;0.80;;;0.80;;
6133;SDS011;3098;42.678;23.364;2022-12-20T05:55:12;5.07;;;1.70;;
6133;SDS011;3098;42.678;23.364;2022-12-20T05:57:41;1.00;;;0.90;;
6133;SDS011;3098;42.678;23.364;2022-12-20T06:00:09;1.10;;;1.10;;
6133;SDS011;3098;42.678;23.364;2022-12-20T06:02:38;1.53;;;1.43;;
6133;SDS011;3098;42.678;23.364;2022-12-20T06:05:07;6.17;;;1.77;;
6133;SDS011;3098;42.678;23.364;2022-12-20T06:07:44;3.03;;;2.20;;
6133;SDS011;3098;42.678;23.364;2022-12-20T06:10:13;4.03;;;2.23;;
6133;SDS011;3098;42.678;23.364;2022-12-20T06:12:40;2.30;;;1.33;;
6133;SDS011;3098;42.678;23.364;2022-12-20T06:15:08;3.07;;;2.20;;
6133;SDS011;3098;42.678;23.364;2022-12-20T06:17:39;4.93;;;1.53;;
6133;SDS011;3098;42.678;23.364;2022-12-20T06:20:07;5.37;;;2.03;;
6133;SDS011;3098;42.678;23.364;2022-12-20T06:22:37;6.73;;;1.93;;
6133;SDS011;3098;42.678;23.364;2022-12-20T06:25:05;1.97;;;1.77;;
6133;SDS011;3098;42.678;23.364;2022-12-20T06:27:34;3.80;;;2.80;;
6133;SDS011;3098;42.678;23.364;2022-12-20T06:30:03;4.30;;;2.07;;
6133;SDS011;3098;42.678;23.364;2022-12-20T06:32:31;6.83;;;2.60;;
6133;SDS011;3098;42.678;23.364;2022-12-20T06:34:59;2.47;;;1.93;;
6133;SDS011;3098;42.678;23.364;2022-12-20T06:37:25;5.53;;;2.57;;
6133;SDS011;3098;42.678;23.364;2022-12-20T06:39:54;4.87;;;3.07;;
6133;SDS011;3098;42.678;23.364;2022-12-20T06:42:21;5.20;;;2.83;;
6133;SDS011;3098;42.678;23.364;2022-12-20T06:44:48;4.40;;;2.63;;
6133;SDS011;3098;42.678;23.364;2022-12-20T06:47:26;2.97;;;1.90;;
6133;SDS011;3098;42.678;23.364;2022-12-20T06:49:54;6.60;;;2.57;;
6133;SDS011;3098;42.678;23.364;2022-12-20T06:52:21;6.03;;;3.27;;
6133;SDS011;3098;42.678;23.364;2022-12-20T06:54:50;9.30;;;2.37;;
6133;SDS011;3098;42.678;23.364;2022-12-20T06:57:19;7.23;;;3.10;;
6133;SDS011;3098;42.678;23.364;2022-12-20T06:59:47;9.50;;;2.83;;
6133;SDS011;3098;42.678;23.364;2022-12-20T07:02:14;12.00;;;3.50;;
6133;SDS011;3098;42.678;23.364;2022-12-20T07:04:43;6.40;;;3.43;;
6133;SDS011;3098;42.678;23.364;2022-12-20T07:07:17;7.77;;;1.80;;
6133;SDS011;3098;42.678;23.364;2022-12-20T07:09:46;5.33;;;2.90;;
6133;SDS011;3098;42.678;23.364;2022-12-20T07:12:14;3.47;;;2.50;;
6133;SDS011;3098;42.678;23.364;2022-12-20T07:14:46;7.77;;;3.73;;
6133;SDS011;3098;42.678;23.364;2022-12-20T07:17:14;9.07;;;4.20;;
6133;SDS011;3098;42.678;23.364;2022-12-20T07:19:42;17.57;;;4.17;;
6133;SDS011;3098;42.678;23.364;2022-12-20T07:22:09;3.63;;;2.13;;
6133;SDS011;3098;42.678;23.364;2022-12-20T07:24:40;7.53;;;3.53;;
6133;SDS011;3098;42.678;23.364;2022-12-20T07:27:08;3.00;;;1.43;;
6133;SDS011;3098;42.678;23.364;2022-12-20T07:29:36;3.23;;;2.90;;
6133;SDS011;3098;42.678;23.364;2022-12-20T07:32:08;4.37;;;3.07;;
6133;SDS011;3098;42.678;23.364;2022-12-20T07:34:38;4.33;;;2.63;;
6133;SDS011;3098;42.678;23.364;2022-12-20T07:37:05;3.40;;;2.17;;
6133;SDS011;3098;42.678;23.364;2022-12-20T07:39:33;5.85;;;2.45;;
6133;SDS011;3098;42.678;23.364;2022-12-20T07:42:01;8.60;;;3.00;;
6133;SDS011;3098;42.678;23.364;2022-12-20T07:44:29;6.53;;;3.25;;
6133;SDS011;3098;42.678;23.364;2022-12-20T07:46:58;3.55;;;2.65;;
6133;SDS011;3098;42.678;23.364;2022-12-20T07:49:27;5.05;;;3.00;;
6133;SDS011;3098;42.678;23.364;2022-12-20T07:51:55;10.63;;;3.85;;
6133;SDS011;3098;42.678;23.364;2022-12-20T07:54:27;21.90;;;3.92;;
6133;SDS011;3098;42.678;23.364;2022-12-20T07:56:58;9.65;;;2.70;;
6133;SDS011;3098;42.678;23.364;2022-12-20T07:59:33;6.75;;;2.67;;
6133;SDS011;3098;42.678;23.364;2022-12-20T08:02:03;8.43;;;3.63;;
6133;SDS011;3098;42.678;23.364;2022-12-20T08:04:33;3.13;;;2.13;;
6133;SDS011;3098;42.678;23.364;2022-12-20T08:07:00;3.85;;;2.10;;
6133;SDS011;3098;42.678;23.364;2022-12-20T08:09:28;7.28;;;2.90;;
6133;SDS011;3098;42.678;23.364;2022-12-20T08:11:57;6.15;;;2.67;;
6133;SDS011;3098;42.678;23.364;2022-12-20T08:14:25;16.88;;;3.53;;
6133;SDS011;3098;42.678;23.364;2022-12-20T08:16:53;8.35;;;3.42;;
6133;SDS011;3098;42.678;23.364;2022-12-20T08:19:22;1.60;;;1.05;;
6133;SDS011;3098;42.678;23.364;2022-12-20T08:21:51;4.60;;;2.30;;
6133;SDS011;3098;42.678;23.364;2022-12-20T08:24:19;4.88;;;1.85;;
6133;SDS011;3098;42.678;23.364;2022-12-20T08:26:48;4.53;;;2.40;;
6133;SDS011;3098;42.678;23.364;2022-12-20T08:29:15;5.00;;;2.28;;
6133;SDS011;3098;42.678;23.364;2022-12-20T08:31:43;2.88;;;2.33;;
6133;SDS011;3098;42.678;23.364;2022-12-20T08:34:10;3.42;;;1.90;;
6133;SDS011;3098;42.678;23.364;2022-12-20T08:36:38;4.30;;;2.63;;
6133;SDS011;3098;42.678;23.364;2022-12-20T08:39:07;5.72;;;2.55;;
6133;SDS011;3098;42.678;23.364;2022-12-20T08:41:36;2.50;;;1.92;;
6133;SDS011;3098;42.678;23.364;2022-12-20T08:44:03;7.35;;;3.85;;
6133;SDS011;3098;42.678;23.364;2022-12-20T08:46:30;6.07;;;2.35;;
6133;SDS011;3098;42.678;23.364;2022-12-20T08:48:57;6.72;;;2.22;;
6133;SDS011;3098;42.678;23.364;2022-12-20T08:51:24;7.80;;;2.60;;
6133;SDS011;3098;42.678;23.364;2022-12-20T08:53:51;4.68;;;1.58;;
6133;SDS011;3098;42.678;23.364;2022-12-20T08:56:20;3.17;;;2.15;;
6133;SDS011;3098;42.678;23.364;2022-12-20T08:58:47;6.53;;;2.80;;
6133;SDS011;3098;42.678;23.364;2022-12-20T09:01:16;5.78;;;3.00;;
6133;SDS011;3098;42.678;23.364;2022-12-20T09:03:46;4.13;;;2.13;;
6133;SDS011;3098;42.678;23.364;2022-12-20T09:06:16;4.28;;;2.47;;
6133;SDS011;3098;42.678;23.364;2022-12-20T09:08:45;9.13;;;3.08;;
6133;SDS011;3098;42.678;23.364;2022-12-20T09:11:15;10.63;;;3.15;;
6133;SDS011;3098;42.678;23.364;2022-12-20T09:13:46;8.07;;;2.55;;
6133;SDS011;3098;42.678;23.364;2022-12-20T09:16:16;4.18;;;2.40;;
6133;SDS011;3098;42.678;23.364;2022-12-20T09:18:46;5.70;;;2.97;;
6133;SDS011;3098;42.678;23.364;2022-12-20T09:21:14;7.00;;;4.03;;
6133;SDS011;3098;42.678;23.364;2022-12-20T09:23:43;5.82;;;2.72;;
6133;SDS011;3098;42.678;23.364;2022-12-20T09:26:13;5.70;;;2.72;;
6133;SDS011;3098;42.678;23.364;2022-12-20T09:29:00;5.82;;;2.75;;
6133;SDS011;3098;42.678;23.364;2022-12-20T09:31:28;5.30;;;2.60;;
6133;SDS011;3098;42.678;23.364;2022-12-20T09:33:56;11.55;;;3.60;;
6133;SDS011;3098;42.678;23.364;2022-12-20T09:36:26;6.35;;;2.70;;
6133;SDS011;3098;42.678;23.364;2022-12-20T09:38:56;4.40;;;2.63;;
6133;SDS011;3098;42.678;23.364;2022-12-20T09:41:25;3.67;;;2.35;;
6133;SDS011;3098;42.678;23.364;2022-12-20T09:43:58;16.00;;;2.35;;
6133;SDS011;3098;42.678;23.364;2022-12-20T09:46:32;2.90;;;2.10;;
6133;SDS011;3098;42.678;23.364;2022-12-20T09:49:01;3.55;;;1.98;;
6133;SDS011;3098;42.678;23.364;2022-12-20T09:54:31;5.80;;;1.50;;
6133;SDS011;3098;42.678;23.364;2022-12-20T09:57:06;3.55;;;1.80;;
6133;SDS011;3098;42.678;23.364;2022-12-20T09:59:46;7.05;;;2.97;;
6133;SDS011;3098;42.678;23.364;2022-12-20T10:02:15;5.97;;;2.80;;
6133;SDS011;3098;42.678;23.364;2022-12-20T10:04:48;2.67;;;2.13;;
6133;SDS011;3098;42.678;23.364;2022-12-20T10:07:19;5.43;;;2.58;;
6133;SDS011;3098;42.678;23.364;2022-12-20T10:10:01;5.38;;;2.40;;
6133;SDS011;3098;42.678;23.364;2022-12-20T10:12:42;4.78;;;2.58;;
6133;SDS011;3098;42.678;23.364;2022-12-20T10:15:20;12.20;;;2.33;;
6133;SDS011;3098;42.678;23.364;2022-12-20T10:17:53;7.93;;;1.85;;
6133;SDS011;3098;42.678;23.364;2022-12-20T10:20:38;7.47;;;1.92;;
6133;SDS011;3098;42.678;23.364;2022-12-20T10:23:16;10.00;;;2.75;;
6133;SDS011;3098;42.678;23.364;2022-12-20T10:25:50;3.40;;;1.70;;
6133;SDS011;3098;42.678;23.364;2022-12-20T10:28:22;13.13;;;3.72;;
6133;SDS011;3098;42.678;23.364;2022-12-20T10:30:58;2.67;;;1.77;;
6133;SDS011;3098;42.678;23.364;2022-12-20T10:33:30;6.18;;;2.70;;
6133;SDS011;3098;42.678;23.364;2022-12-20T10:38:44;8.30;;;2.72;;
6133;SDS011;3098;42.678;23.364;2022-12-20T10:41:14;4.82;;;2.45;;
6133;SDS011;3098;42.678;23.364;2022-12-20T10:43:43;3.15;;;2.58;;
6133;SDS011;3098;42.678;23.364;2022-12-20T10:46:15;9.05;;;2.83;;
6133;SDS011;3098;42.678;23.364;2022-12-20T10:48:44;4.80;;;1.98;;
6133;SDS011;3098;42.678;23.364;2022-12-20T10:51:15;4.43;;;1.85;;
6133;SDS011;3098;42.678;23.364;2022-12-20T10:53:49;4.57;;;1.77;;
6133;SDS011;3098;42.678;23.364;2022-12-20T10:56:22;5.10;;;2.72;;
6133;SDS011;3098;42.678;23.364;2022-12-20T10:58:52;2.85;;;1.77;;
6133;SDS011;3098;42.678;23.364;2022-12-20T11:01:24;1.45;;;1.17;;
6133;SDS011;3098;42.678;23.364;2022-12-20T11:03:58;5.18;;;2.13;;
6133;SDS011;3098;42.678;23.364;2022-12-20T11:06:28;1.93;;;1.57;;
6133;SDS011;3098;42.678;23.364;2022-12-20T11:09:26;10.70;;;1.92;;
6133;SDS011;3098;42.678;23.364;2022-12-20T11:11:59;6.37;;;2.73;;
6133;SDS011;3098;42.678;23.364;2022-12-20T11:14:29;3.33;;;1.73;;
6133;SDS011;3098;42.678;23.364;2022-12-20T11:16:59;1.43;;;1.33;;
6133;SDS011;3098;42.678;23.364;2022-12-20T11:19:36;4.70;;;1.83;;
6133;SDS011;3098;42.678;23.364;2022-12-20T11:22:19;3.37;;;1.70;;
6133;SDS011;3098;42.678;23.364;2022-12-20T11:25:01;4.30;;;1.60;;
6133;SDS011;3098;42.678;23.364;2022-12-20T11:27:47;4.63;;;1.73;;
6133;SDS011;3098;42.678;23.364;2022-12-20T11:30:21;2.50;;;1.70;;
6133;SDS011;3098;42.678;23.364;2022-12-20T11:32:57;2.17;;;1.20;;
6133;SDS011;3098;42.678;23.364;2022-12-20T11:35:50;6.13;;;2.10;;
6133;SDS011;3098;42.678;23.364;2022-12-20T11:38:27;3.30;;;2.00;;
6133;SDS011;3098;42.678;23.364;2022-12-20T11:41:15;2.83;;;1.50;;
6133;SDS011;3098;42.678;23.364;2022-12-20T11:43:50;4.17;;;2.23;;
6133;SDS011;3098;42.678;23.364;2022-12-20T11:46:30;3.57;;;1.40;;
6133;SDS011;3098;42.678;23.364;2022-12-20T11:49:28;4.28;;;1.55;;
6133;SDS011;3098;42.678;23.364;2022-12-20T11:52:24;7.30;;;2.53;;
6133;SDS011;3098;42.678;23.364;2022-12-20T11:55:03;3.25;;;1.95;;
6133;SDS011;3098;42.678;23.364;2022-12-20T11:57:42;1.63;;;1.30;;
6133;SDS011;3098;42.678;23.364;2022-12-20T12:00:15;6.33;;;1.97;;
6133;SDS011;3098;42.678;23.364;2022-12-20T12:02:47;3.47;;;1.50;;
6133;SDS011;3098;42.678;23.364;2022-12-20T12:05:22;3.55;;;1.55;;
6133;SDS011;3098;42.678;23.364;2022-12-20T12:07:55;3.00;;;1.60;;
6133;SDS011;3098;42.678;23.364;2022-12-20T12:10:28;3.40;;;2.17;;
6133;SDS011;3098;42.678;23.364;2022-12-20T12:13:02;4.97;;;2.10;;
6133;SDS011;3098;42.678;23.364;2022-12-20T12:15:39;2.40;;;1.80;;
6133;SDS011;3098;42.678;23.364;2022-12-20T12:18:17;3.80;;;1.77;;
6133;SDS011;3098;42.678;23.364;2022-12-20T12:20:50;3.75;;;1.90;;
6133;SDS011;3098;42.678;23.364;2022-12-20T12:23:22;4.82;;;1.73;;
6133;SDS011;3098;42.678;23.364;2022-12-20T12:25:53;5.68;;;2.28;;
6133;SDS011;3098;42.678;23.364;2022-12-20T12:28:20;4.15;;;2.13;;
6133;SDS011;3098;42.678;23.364;2022-12-20T12:30:51;4.73;;;2.23;;
6133;SDS011;3098;42.678;23.364;2022-12-20T12:33:23;1.00;;;0.90;;
6133;SDS011;3098;42.678;23.364;2022-12-20T12:36:00;2.97;;;1.70;;
6133;SDS011;3098;42.678;23.364;2022-12-20T12:38:46;4.67;;;1.23;;
6133;SDS011;3098;42.678;23.364;2022-12-20T12:41:38;2.27;;;1.73;;
6133;SDS011;3098;42.678;23.364;2022-12-20T12:44:33;2.20;;;1.33;;
6133;SDS011;3098;42.678;23.364;2022-12-20T12:47:10;6.88;;;1.85;;
6133;SDS011;3098;42.678;23.364;2022-12-20T12:49:41;1.55;;;0.80;;
6133;SDS011;3098;42.678;23.364;2022-12-20T12:52:26;1.52;;;0.88;;
6133;SDS011;3098;42.678;23.364;2022-12-20T12:55:01;5.05;;;1.98;;
6133;SDS011;3098;42.678;23.364;2022-12-20T12:57:29;2.95;;;1.42;;
6133;SDS011;3098;42.678;23.364;2022-12-20T13:03:34;4.22;;;1.63;;
6133;SDS011;3098;42.678;23.364;2022-12-20T13:09:21;2.10;;;1.70;;
6133;SDS011;3098;42.678;23.364;2022-12-20T13:18:21;3.03;;;1.17;;
6133;SDS011;3098;42.678;23.364;2022-12-20T13:23:43;1.03;;;0.67;;
6133;SDS011;3098;42.678;23.364;2022-12-20T13:29:27;0.90;;;0.90;;
6133;SDS011;3098;42.678;23.364;2022-12-20T13:31:59;1.07;;;0.97;;
6133;SDS011;3098;42.678;23.364;2022-12-20T13:34:38;3.83;;;0.97;;
6133;SDS011;3098;42.678;23.364;2022-12-20T13:37:25;0.60;;;0.60;;
6133;SDS011;3098;42.678;23.364;2022-12-20T13:39:53;1.40;;;1.20;;
6133;SDS011;3098;42.678;23.364;2022-12-20T13:45:10;2.30;;;1.20;;
6133;SDS011;3098;42.678;23.364;2022-12-20T13:47:42;3.07;;;1.03;;
6133;SDS011;3098;42.678;23.364;2022-12-20T13:50:29;4.10;;;1.50;;
6133;SDS011;3098;42.678;23.364;2022-12-20T13:53:00;1.50;;;1.37;;
6133;SDS011;3098;42.678;23.364;2022-12-20T13:55:31;1.33;;;0.87;;
6133;SDS011;3098;42.678;23.364;2022-12-20T13:58:05;3.37;;;1.00;;
6133;SDS011;3098;42.678;23.364;2022-12-20T14:00:39;1.23;;;0.63;;
6133;SDS011;3098;42.678;23.364;2022-12-20T14:03:12;3.00;;;0.93;;
6133;SDS011;3098;42.678;23.364;2022-12-20T14:05:49;6.13;;;1.23;;
6133;SDS011;3098;42.678;23.364;2022-12-20T14:08:22;1.73;;;1.43;;
6133;SDS011;3098;42.678;23.364;2022-12-20T14:10:53;1.90;;;1.03;;
6133;SDS011;3098;42.678;23.364;2022-12-20T14:13:23;4.23;;;1.10;;
6133;SDS011;3098;42.678;23.364;2022-12-20T14:15:54;1.53;;;1.03;;
6133;SDS011;3098;42.678;23.364;2022-12-20T14:18:22;0.63;;;0.63;;
6133;SDS011;3098;42.678;23.364;2022-12-20T14:20:52;1.80;;;0.97;;
6133;SDS011;3098;42.678;23.364;2022-12-20T14:23:22;2.00;;;0.80;;
6133;SDS011;3098;42.678;23.364;2022-12-20T14:25:53;0.47;;;0.33;;
6133;SDS011;3098;42.678;23.364;2022-12-20T14:28:28;1.27;;;0.80;;
6133;SDS011;3098;42.678;23.364;2022-12-20T14:31:02;1.50;;;0.67;;
6133;SDS011;3098;42.678;23.364;2022-12-20T14:33:33;1.13;;;1.03;;
6133;SDS011;3098;42.678;23.364;2022-12-20T14:36:15;3.00;;;1.37;;
6133;SDS011;3098;42.678;23.364;2022-12-20T14:38:45;3.70;;;1.43;;
6133;SDS011;3098;42.678;23.364;2022-12-20T14:41:28;3.03;;;1.27;;
6133;SDS011;3098;42.678;23.364;2022-12-20T14:43:57;2.50;;;1.47;;
6133;SDS011;3098;42.678;23.364;2022-12-20T14:46:32;3.90;;;1.67;;
6133;SDS011;3098;42.678;23.364;2022-12-20T14:49:14;1.27;;;1.17;;
6133;SDS011;3098;42.678;23.364;2022-12-20T14:51:48;5.43;;;1.93;;
6133;SDS011;3098;42.678;23.364;2022-12-20T14:54:16;1.20;;;1.10;;
6133;SDS011;3098;42.678;23.364;2022-12-20T14:56:46;4.00;;;2.37;;
6133;SDS011;3098;42.678;23.364;2022-12-20T14:59:21;3.80;;;1.63;;
6133;SDS011;3098;42.678;23.364;2022-12-20T15:01:54;0.87;;;0.77;;
6133;SDS011;3098;42.678;23.364;2022-12-20T15:04:25;1.13;;;1.00;;
6133;SDS011;3098;42.678;23.364;2022-12-20T15:06:57;1.17;;;1.07;;
6133;SDS011;3098;42.678;23.364;2022-12-20T15:09:27;1.23;;;1.07;;
6133;SDS011;3098;42.678;23.364;2022-12-20T15:11:55;3.30;;;1.57;;
6133;SDS011;3098;42.678;23.364;2022-12-20T15:14:27;1.90;;;1.47;;
6133;SDS011;3098;42.678;23.364;2022-12-20T15:17:02;2.53;;;1.70;;
6133;SDS011;3098;42.678;23.364;2022-12-20T15:19:35;0.80;;;0.80;;
6133;SDS011;3098;42.678;23.364;2022-12-20T15:22:03;3.03;;;1.30;;
6133;SDS011;3098;42.678;23.364;2022-12-20T15:24:31;4.67;;;2.13;;
6133;SDS011;3098;42.678;23.364;2022-12-20T15:26:59;3.97;;;2.20;;
6133;SDS011;3098;42.678;23.364;2022-12-20T15:29:27;2.63;;;1.70;;
6133;SDS011;3098;42.678;23.364;2022-12-20T15:31:57;4.63;;;2.10;;
6133;SDS011;3098;42.678;23.364;2022-12-20T15:34:36;5.60;;;2.27;;
6133;SDS011;3098;42.678;23.364;2022-12-20T15:37:04;1.50;;;1.30;;
6133;SDS011;3098;42.678;23.364;2022-12-20T15:39:33;2.13;;;1.17;;
6133;SDS011;3098;42.678;23.364;2022-12-20T15:42:02;2.33;;;1.70;;
6133;SDS011;3098;42.678;23.364;2022-12-20T15:44:31;3.50;;;1.57;;
6133;SDS011;3098;42.678;23.364;2022-12-20T15:47:00;9.93;;;2.53;;
6133;SDS011;3098;42.678;23.364;2022-12-20T15:49:31;4.17;;;2.10;;
6133;SDS011;3098;42.678;23.364;2022-12-20T15:52:00;1.63;;;1.53;;
6133;SDS011;3098;42.678;23.364;2022-12-20T15:54:38;8.00;;;2.73;;
6133;SDS011;3098;42.678;23.364;2022-12-20T15:57:06;14.10;;;2.83;;